createdAt,value
2023-05-14T04:26:57.489Z,96879.59
2023-05-14T04:29:23.965Z,96889.22
2023-05-14T04:31:50.460Z,96884.03
2023-05-14T04:34:16.942Z,96884.22
2023-05-14T04:36:43.428Z,96895.81
2023-05-14T04:39:09.897Z,96885.69
2023-05-14T04:41:36.386Z,96893.41
2023-05-14T04:44:02.842Z,96887.13
2023-05-14T04:46:29.337Z,96891.88
2023-05-14T04:48:55.891Z,96892.22
2023-05-14T04:51:22.314Z,96890.91
2023-05-14T04:53:48.696Z,96896.13
2023-05-14T04:56:15.190Z,96891.34
2023-05-14T04:58:41.632Z,96892.06
2023-05-14T05:01:08.170Z,96894.97
2023-05-14T05:03:34.771Z,96894.13
2023-05-14T05:06:01.283Z,96899.78
2023-05-14T05:08:30.587Z,96897.16
2023-05-14T05:10:57.078Z,96894.28
2023-05-14T05:13:23.537Z,96901.41
2023-05-14T05:15:50.204Z,96900.50
2023-05-14T05:18:16.673Z,96916.00
2023-05-14T05:20:43.301Z,96910.75
2023-05-14T05:23:09.803Z,96906.34
2023-05-14T05:25:36.501Z,96907.19
2023-05-14T05:28:02.920Z,96904.47
2023-05-14T05:30:29.555Z,96907.63
2023-05-14T05:32:56.081Z,96903.53
2023-05-14T05:35:22.590Z,96905.84
2023-05-14T05:37:49.168Z,96901.50
2023-05-14T05:40:15.588Z,96910.16
2023-05-14T05:42:42.013Z,96903.28
2023-05-14T05:45:08.412Z,96906.84
2023-05-14T05:47:35.028Z,96906.09
2023-05-14T05:50:01.471Z,96911.06
2023-05-14T05:52:27.946Z,96907.69
2023-05-14T05:54:54.405Z,96908.72
2023-05-14T05:57:20.891Z,96900.00
2023-05-14T05:59:47.346Z,96902.94
2023-05-14T06:02:13.838Z,96909.53
2023-05-14T06:04:40.381Z,96908.88
2023-05-14T06:07:06.883Z,96909.03
2023-05-14T06:09:33.361Z,96909.63
2023-05-14T06:11:59.869Z,96907.84
2023-05-14T06:14:26.292Z,96907.84
2023-05-14T06:16:52.798Z,96908.28
2023-05-14T06:19:19.531Z,96906.50
2023-05-14T06:21:45.989Z,96908.88
2023-05-14T06:24:12.502Z,96907.09
2023-05-14T06:26:38.941Z,96903.22
2023-05-14T06:29:05.414Z,96903.44
2023-05-14T06:31:31.978Z,96913.13
2023-05-14T06:33:58.465Z,96912.28
2023-05-14T06:36:24.964Z,96911.25
2023-05-14T06:38:51.393Z,96912.94
2023-05-14T06:41:17.897Z,96901.41
2023-05-14T06:43:44.391Z,96912.19
2023-05-14T06:46:10.894Z,96909.91
2023-05-14T06:48:37.379Z,96918.66
2023-05-14T06:51:03.837Z,96913.03
2023-05-14T06:53:30.318Z,96921.78
2023-05-14T06:55:57.183Z,96913.38
2023-05-14T06:58:23.687Z,96916.16
2023-05-14T07:00:50.197Z,96920.75
2023-05-14T07:03:16.621Z,96916.84
2023-05-14T07:05:43.025Z,96928.41
2023-05-14T07:08:09.468Z,96919.91
2023-05-14T07:10:35.900Z,96923.16
2023-05-14T07:13:02.328Z,96919.91
2023-05-14T07:15:28.840Z,96917.78
2023-05-14T07:17:55.560Z,96917.69
2023-05-14T07:20:22.236Z,96911.94
2023-05-14T07:22:51.817Z,96910.72
2023-05-14T07:25:18.346Z,96907.44
2023-05-14T07:27:44.842Z,96905.91
2023-05-14T07:30:11.364Z,96903.13
2023-05-14T07:32:37.945Z,96907.03
2023-05-14T07:35:04.520Z,96904.03
2023-05-14T07:37:31.088Z,96905.91
2023-05-14T07:39:57.633Z,96891.72
2023-05-14T07:42:35.214Z,96900.03
2023-05-14T07:45:02.965Z,96902.44
2023-05-14T07:47:29.648Z,96900.69
2023-05-14T07:49:56.235Z,96894.44
2023-05-14T07:52:22.749Z,96899.19
2023-05-14T07:54:50.691Z,96898.28
2023-05-14T07:57:17.303Z,96897.66
2023-05-14T07:59:43.829Z,96893.63
2023-05-14T08:02:10.349Z,96890.31
2023-05-14T08:04:37.169Z,96898.28
2023-05-14T08:07:06.784Z,96897.81
2023-05-14T08:09:33.265Z,96900.81
2023-05-14T08:11:59.779Z,96898.34
2023-05-14T08:14:26.259Z,96902.34
2023-05-14T08:16:52.838Z,96885.53
2023-05-14T08:19:19.528Z,96890.03
2023-05-14T08:21:46.102Z,96884.75
2023-05-14T08:24:12.559Z,96884.75
2023-05-14T08:26:39.023Z,96881.78
2023-05-14T08:29:05.543Z,96879.34
2023-05-14T08:31:34.805Z,96870.66
2023-05-14T08:34:01.292Z,96876.97
2023-05-14T08:36:27.837Z,96869.34
2023-05-14T08:38:54.287Z,96875.19
2023-05-14T08:41:20.732Z,96866.88
2023-05-14T08:43:47.160Z,96868.81
2023-05-14T08:46:13.597Z,96869.09
2023-05-14T08:48:40.123Z,96860.09
2023-05-14T08:51:06.551Z,96855.53
2023-05-14T08:53:33.024Z,96856.47
2023-05-14T08:55:59.652Z,96854.22
2023-05-14T08:58:26.172Z,96854.91
2023-05-14T09:00:52.694Z,96856.66
2023-05-14T09:03:19.323Z,96855.47
2023-05-14T09:05:45.924Z,96856.44
2023-05-14T09:08:12.392Z,96853.28
2023-05-14T09:10:38.915Z,96857.94
2023-05-14T09:13:05.441Z,96848.97
2023-05-14T09:15:32.117Z,96852.81
2023-05-14T09:17:58.637Z,96852.06
2023-05-14T09:20:25.422Z,96847.53
2023-05-14T09:22:52.324Z,96857.75
2023-05-14T09:25:18.830Z,96853.38
2023-05-14T09:27:45.329Z,96849.06
2023-05-14T09:30:11.792Z,96851.41
2023-05-14T09:32:38.407Z,96853.69
2023-05-14T09:35:05.002Z,96844.78
2023-05-14T09:37:31.478Z,96838.38
2023-05-14T09:39:58.045Z,96844.91
2023-05-14T09:42:24.549Z,96838.16
2023-05-14T09:44:51.005Z,96840.34
2023-05-14T09:47:17.502Z,96835.09
2023-05-14T09:49:44.006Z,96838.16
2023-05-14T09:52:10.537Z,96841.88
2023-05-14T09:54:37.062Z,96840.16
2023-05-14T09:57:03.616Z,96823.09
2023-05-14T09:59:30.066Z,96830.06
2023-05-14T10:01:56.575Z,96832.56
2023-05-14T10:04:23.099Z,96824.56
2023-05-14T10:06:49.611Z,96826.94
2023-05-14T10:09:16.124Z,96821.91
2023-05-14T10:11:42.635Z,96829.53
2023-05-14T10:14:09.185Z,96822.75
2023-05-14T10:16:35.716Z,96826.34
2023-05-14T10:19:02.263Z,96820.91
2023-05-14T10:21:28.813Z,96824.94
2023-05-14T10:23:55.300Z,96825.16
2023-05-14T10:26:23.846Z,96816.13
2023-05-14T10:28:50.636Z,96817.47
2023-05-14T10:31:17.173Z,96810.38
2023-05-14T10:33:43.704Z,96811.16
2023-05-14T10:36:10.218Z,96815.16
2023-05-14T10:38:39.829Z,96814.25
2023-05-14T10:41:06.338Z,96811.16
2023-05-14T10:43:32.886Z,96823.28
2023-05-14T10:45:59.435Z,96811.94
2023-05-14T10:48:25.999Z,96802.66
2023-05-14T10:50:52.531Z,96808.28
2023-05-14T10:53:19.039Z,96807.13
2023-05-14T10:55:45.604Z,96803.59
2023-05-14T10:58:12.106Z,96806.84
2023-05-14T11:00:38.705Z,96814.78
2023-05-14T11:03:05.291Z,96802.16
2023-05-14T11:05:31.830Z,96811.31
2023-05-14T11:07:58.438Z,96804.22
2023-05-14T11:10:25.258Z,96806.66
2023-05-14T11:12:51.945Z,96801.34
2023-05-14T11:15:18.554Z,96799.16
2023-05-14T11:17:45.092Z,96802.44
2023-05-14T11:20:11.667Z,96794.16
2023-05-14T11:22:38.171Z,96798.38
2023-05-14T11:25:04.671Z,96794.00
2023-05-14T11:27:31.138Z,96801.28
2023-05-14T11:29:57.655Z,96797.78
2023-05-14T11:32:24.256Z,96796.78
2023-05-14T11:34:50.805Z,96786.78
2023-05-14T11:37:17.267Z,96785.38
2023-05-14T11:39:43.711Z,96786.16
2023-05-14T11:42:10.203Z,96781.47
2023-05-14T11:44:36.710Z,96788.56
2023-05-14T11:47:03.303Z,96785.44
2023-05-14T11:49:29.815Z,96781.19
2023-05-14T11:51:56.339Z,96777.16
2023-05-14T11:54:22.815Z,96770.53
2023-05-14T11:56:49.285Z,96775.00
2023-05-14T11:59:15.737Z,96774.81
2023-05-14T12:01:42.251Z,96775.53
2023-05-14T12:04:08.924Z,96763.25
2023-05-14T12:06:35.394Z,96772.94
2023-05-14T12:09:01.914Z,96763.16
2023-05-14T12:11:28.442Z,96759.88
2023-05-14T12:13:54.911Z,96759.00
2023-05-14T12:16:21.457Z,96760.88
2023-05-14T12:18:48.108Z,96762.72
2023-05-14T12:21:14.677Z,96769.22
2023-05-14T12:23:41.166Z,96765.19
2023-05-14T12:26:07.708Z,96755.88
2023-05-14T12:28:37.685Z,96761.53
2023-05-14T12:31:08.004Z,96754.00
2023-05-14T12:33:34.516Z,96748.59
2023-05-14T12:36:10.025Z,96753.81
2023-05-14T12:38:40.276Z,96758.06
2023-05-14T12:41:06.782Z,96758.50
2023-05-14T12:43:33.330Z,96754.03
2023-05-14T12:45:59.831Z,96754.78
2023-05-14T12:48:26.281Z,96744.03
2023-05-14T12:50:52.705Z,96748.19
2023-05-14T12:53:19.212Z,96746.84
2023-05-14T12:55:45.698Z,96746.97
2023-05-14T12:58:12.199Z,96739.69
2023-05-14T13:00:38.743Z,96747.09
2023-05-14T13:03:05.263Z,96747.63
2023-05-14T13:05:31.720Z,96740.75
2023-05-14T13:07:58.188Z,96735.25
2023-05-14T13:10:24.896Z,96735.44
2023-05-14T13:12:51.379Z,96728.56
2023-05-14T13:15:17.864Z,96726.31
2023-05-14T13:17:44.384Z,96733.47
2023-05-14T13:20:10.945Z,96726.09
2023-05-14T13:22:37.400Z,96719.44
2023-05-14T13:25:03.918Z,96714.97
2023-05-14T13:27:30.516Z,96724.44
2023-05-14T13:29:56.963Z,96718.16
2023-05-14T13:32:23.513Z,96713.09
2023-05-14T13:34:50.084Z,96708.22
2023-05-14T13:37:16.579Z,96713.44
2023-05-14T13:39:43.120Z,96710.28
2023-05-14T13:42:09.581Z,96702.44
2023-05-14T13:44:36.056Z,96704.56
2023-05-14T13:47:02.469Z,96698.13
2023-05-14T13:49:28.979Z,96701.72
2023-05-14T13:51:55.492Z,96703.91
2023-05-14T13:54:21.984Z,96693.69
2023-05-14T13:56:48.480Z,96683.53
2023-05-14T13:59:15.023Z,96683.38
2023-05-14T14:01:41.642Z,96693.66
2023-05-14T14:04:08.120Z,96691.28
2023-05-14T14:06:34.674Z,96698.78
2023-05-14T14:09:01.409Z,96700.59
2023-05-14T14:11:27.977Z,96697.44
2023-05-14T14:13:54.456Z,96693.75
2023-05-14T14:16:20.984Z,96694.41
2023-05-14T14:18:50.628Z,96690.69
2023-05-14T14:21:17.221Z,96686.66
2023-05-14T14:23:43.713Z,96684.47
2023-05-14T14:26:10.238Z,96683.66
2023-05-14T14:28:36.679Z,96676.03
2023-05-14T14:31:03.229Z,96676.38
2023-05-14T14:33:29.700Z,96685.41
2023-05-14T14:35:56.150Z,96682.31
2023-05-14T14:38:22.767Z,96697.25
2023-05-14T14:40:49.321Z,96689.16
2023-05-14T14:43:15.946Z,96687.19
2023-05-14T14:45:42.492Z,96685.75
2023-05-14T14:48:09.092Z,96682.34
2023-05-14T14:50:35.625Z,96683.22
2023-05-14T14:53:02.087Z,96678.63
2023-05-14T14:55:28.604Z,96680.94
2023-05-14T14:57:55.153Z,96687.84
2023-05-14T15:00:21.704Z,96681.13
2023-05-14T15:02:48.361Z,96685.34
2023-05-14T15:05:14.858Z,96685.81
2023-05-14T15:07:41.457Z,96684.91
2023-05-14T15:10:07.930Z,96686.47
2023-05-14T15:12:34.356Z,96670.63
2023-05-14T15:15:00.835Z,96683.59
2023-05-14T15:17:27.422Z,96679.66
2023-05-14T15:19:53.875Z,96679.47
2023-05-14T15:22:20.368Z,96675.38
2023-05-14T15:24:46.865Z,96674.13
2023-05-14T15:27:13.425Z,96673.44
2023-05-14T15:29:39.920Z,96672.22
2023-05-14T15:32:06.389Z,96674.22
2023-05-14T15:34:32.933Z,96676.97
2023-05-14T15:36:59.389Z,96681.72
2023-05-14T15:39:25.828Z,96684.22
2023-05-14T15:41:52.242Z,96688.72
2023-05-14T15:44:18.696Z,96686.06
2023-05-14T15:46:46.468Z,96682.03
2023-05-14T15:49:13.008Z,96682.81
2023-05-14T15:51:39.425Z,96682.94
2023-05-14T15:54:05.922Z,96676.69
2023-05-14T15:56:32.398Z,96674.63
2023-05-14T15:58:58.928Z,96633.44
2023-05-14T16:01:25.412Z,96643.06
2023-05-14T16:03:52.011Z,96638.63
2023-05-14T16:06:18.549Z,96643.28
2023-05-14T16:08:45.066Z,96640.13
2023-05-14T16:11:11.527Z,96679.56
2023-05-14T16:13:38.009Z,96678.38
2023-05-14T16:16:04.551Z,96677.53
2023-05-14T16:18:31.173Z,96672.88
2023-05-14T16:20:57.884Z,96664.00
2023-05-14T16:23:24.324Z,96673.44
2023-05-14T16:25:50.848Z,96675.00
2023-05-14T16:28:17.361Z,96680.88
2023-05-14T16:30:43.842Z,96664.13
2023-05-14T16:33:10.580Z,96688.16
2023-05-14T16:38:27.569Z,96674.66
2023-05-14T16:40:54.049Z,96699.84
2023-05-14T16:43:20.569Z,96689.84
2023-05-14T16:45:47.173Z,96693.50
2023-05-14T16:48:13.706Z,96707.13
2023-05-14T16:50:40.236Z,96705.09
2023-05-14T16:53:06.690Z,96703.38
2023-05-14T16:55:33.256Z,96708.44
2023-05-14T16:57:59.702Z,96706.41
2023-05-14T17:00:26.097Z,96707.78
2023-05-14T17:02:52.702Z,96705.34
2023-05-14T17:05:19.186Z,96709.53
2023-05-14T17:07:45.625Z,96709.28
2023-05-14T17:10:12.138Z,96715.31
2023-05-14T17:12:38.664Z,96716.59
2023-05-14T17:15:05.568Z,96719.66
2023-05-14T17:17:32.330Z,96725.41
2023-05-14T17:19:58.917Z,96728.09
2023-05-14T17:22:25.708Z,96733.22
2023-05-14T17:24:52.203Z,96734.94
2023-05-14T17:27:18.665Z,96742.91
2023-05-14T17:29:45.104Z,96745.31
2023-05-14T17:32:11.603Z,96745.88
2023-05-14T17:34:38.139Z,96751.59
2023-05-14T17:37:04.654Z,96758.28
2023-05-14T17:39:31.178Z,96760.47
2023-05-14T17:41:57.638Z,96756.91
2023-05-14T17:44:27.082Z,96761.03
2023-05-14T17:46:53.642Z,96751.03
2023-05-14T17:49:20.173Z,96757.69
2023-05-14T17:51:46.626Z,96757.06
2023-05-14T17:54:13.112Z,96755.22
2023-05-14T17:56:39.635Z,96753.22
2023-05-14T17:59:06.164Z,96761.91
2023-05-14T18:01:32.658Z,96752.13
2023-05-14T18:03:59.225Z,96759.53
2023-05-14T18:06:25.905Z,96767.50
2023-05-14T18:08:52.384Z,96768.03
2023-05-14T18:11:18.850Z,96765.31
2023-05-14T18:13:45.352Z,96766.97
2023-05-14T18:16:11.845Z,96765.03
2023-05-14T18:18:38.411Z,96778.28
2023-05-14T18:21:04.936Z,96775.69
2023-05-14T18:23:31.461Z,96785.25
2023-05-14T18:25:58.035Z,96794.97
2023-05-14T18:28:24.543Z,96798.22
2023-05-14T18:30:51.131Z,96809.34
2023-05-14T18:33:17.657Z,96814.25
2023-05-14T18:35:44.171Z,96821.09
2023-05-14T18:38:10.813Z,96828.16
2023-05-14T18:40:37.309Z,96824.13
2023-05-14T18:43:03.909Z,96834.25
2023-05-14T18:45:30.462Z,96836.00
2023-05-14T18:47:56.913Z,96836.56
2023-05-14T18:50:23.434Z,96846.13
2023-05-14T18:52:49.943Z,96845.25
2023-05-14T18:55:16.501Z,96844.81
2023-05-14T18:57:42.986Z,96864.16
2023-05-14T19:00:09.496Z,96850.41
2023-05-14T19:02:36.109Z,96840.72
2023-05-14T19:33:30.463Z,96890.81
2023-05-14T19:35:57.004Z,96876.72
2023-05-14T19:38:23.532Z,96884.00
2023-05-14T19:40:49.951Z,96888.72
2023-05-14T19:43:16.384Z,96896.09
2023-05-14T19:45:42.942Z,96910.88
2023-05-14T19:48:09.541Z,96909.63
2023-05-14T19:50:36.061Z,96915.03
2023-05-14T19:53:05.342Z,96919.78
2023-05-14T19:55:31.838Z,96917.25
2023-05-14T19:57:58.854Z,96915.88
2023-05-14T20:00:25.648Z,96914.47
2023-05-14T20:02:52.414Z,96919.91
2023-05-14T20:05:18.990Z,96917.34
2023-05-14T20:07:45.501Z,96928.41
2023-05-14T20:10:11.960Z,96936.38
2023-05-14T20:12:39.088Z,96937.88
2023-05-14T20:15:10.343Z,96937.56
2023-05-14T20:17:36.830Z,96930.84
2023-05-14T20:20:03.339Z,96933.38
2023-05-14T20:22:29.744Z,96931.59
2023-05-14T20:24:56.203Z,96932.28
2023-05-14T20:27:22.712Z,96929.41
2023-05-14T20:29:49.216Z,96934.41
2023-05-14T20:32:15.733Z,96919.19
2023-05-14T20:34:42.189Z,96929.22
2023-05-14T20:37:08.725Z,96912.72
2023-05-14T20:39:35.264Z,96905.09
2023-05-14T20:42:01.708Z,96912.06
2023-05-14T20:44:28.138Z,96904.03
2023-05-14T20:46:57.690Z,96914.97
2023-05-14T20:49:24.199Z,96914.47
